sensor_id;sensor_type;location;lat;lon;timestamp;pressure;altitude;pressure_sealevel;temperature;humidity
75008;BME280;63554;48.940;12.050;2024-02-28T00:00:02;97177.25;;;5.31;81.94
75008;BME280;63554;48.940;12.050;2024-02-28T00:04:07;97177.19;;;5.24;82.03
75008;BME280;63554;48.940;12.050;2024-02-28T00:08:13;97178.41;;;5.22;82.36
75008;BME280;63554;48.940;12.050;2024-02-28T00:12:19;97181.69;;;5.17;82.17
75008;BME280;63554;48.940;12.050;2024-02-28T00:16:27;97181.47;;;5.12;82.74
75008;BME280;63554;48.940;12.050;2024-02-28T00:20:33;97184.09;;;5.05;82.84
75008;BME280;63554;48.940;12.050;2024-02-28T00:24:38;97189.84;;;5.02;82.40
75008;BME280;63554;48.940;12.050;2024-02-28T00:28:44;97185.09;;;4.98;82.71
75008;BME280;63554;48.940;12.050;2024-02-28T00:32:52;97192.47;;;4.96;83.04
75008;BME280;63554;48.940;12.050;2024-02-28T00:36:57;97201.31;;;4.90;82.76
75008;BME280;63554;48.940;12.050;2024-02-28T00:41:03;97207.06;;;4.87;83.14
75008;BME280;63554;48.940;12.050;2024-02-28T00:45:09;97200.59;;;4.81;83.12
75008;BME280;63554;48.940;12.050;2024-02-28T00:49:17;97200.34;;;4.76;83.28
75008;BME280;63554;48.940;12.050;2024-02-28T00:53:23;97214.16;;;4.73;83.53
75008;BME280;63554;48.940;12.050;2024-02-28T00:57:28;97208.16;;;4.71;83.76
75008;BME280;63554;48.940;12.050;2024-02-28T01:01:34;97212.25;;;4.67;83.46
75008;BME280;63554;48.940;12.050;2024-02-28T01:05:42;97211.78;;;4.64;83.98
75008;BME280;63554;48.940;12.050;2024-02-28T01:09:48;97209.69;;;4.59;83.88
75008;BME280;63554;48.940;12.050;2024-02-28T01:13:53;97205.94;;;4.54;83.65
75008;BME280;63554;48.940;12.050;2024-02-28T01:17:59;97207.13;;;4.51;83.84
75008;BME280;63554;48.940;12.050;2024-02-28T01:22:07;97207.31;;;4.50;84.12
75008;BME280;63554;48.940;12.050;2024-02-28T01:26:13;97221.28;;;4.45;84.03
75008;BME280;63554;48.940;12.050;2024-02-28T01:30:18;97226.22;;;4.41;84.49
75008;BME280;63554;48.940;12.050;2024-02-28T01:34:24;97218.09;;;4.35;84.55
75008;BME280;63554;48.940;12.050;2024-02-28T01:38:32;97224.88;;;4.31;84.33
75008;BME280;63554;48.940;12.050;2024-02-28T01:42:37;97235.31;;;4.26;84.56
75008;BME280;63554;48.940;12.050;2024-02-28T01:46:43;97248.88;;;4.24;84.49
75008;BME280;63554;48.940;12.050;2024-02-28T01:50:49;97249.94;;;4.23;84.65
75008;BME280;63554;48.940;12.050;2024-02-28T01:54:57;97262.66;;;4.21;84.86
75008;BME280;63554;48.940;12.050;2024-02-28T01:59:03;97274.41;;;4.20;84.88
75008;BME280;63554;48.940;12.050;2024-02-28T02:03:09;97287.16;;;4.18;84.92
75008;BME280;63554;48.940;12.050;2024-02-28T02:07:15;97297.03;;;4.18;85.15
75008;BME280;63554;48.940;12.050;2024-02-28T02:11:23;97298.50;;;4.20;85.13
75008;BME280;63554;48.940;12.050;2024-02-28T02:15:30;97309.03;;;4.22;84.87
75008;BME280;63554;48.940;12.050;2024-02-28T02:19:35;97310.50;;;4.24;85.22
75008;BME280;63554;48.940;12.050;2024-02-28T02:23:44;97311.97;;;4.27;85.10
75008;BME280;63554;48.940;12.050;2024-02-28T02:27:49;97315.28;;;4.29;85.29
75008;BME280;63554;48.940;12.050;2024-02-28T02:31:55;97313.44;;;4.29;85.27
75008;BME280;63554;48.940;12.050;2024-02-28T02:36:00;97322.31;;;4.30;85.21
75008;BME280;63554;48.940;12.050;2024-02-28T02:40:10;97326.00;;;4.29;85.50
75008;BME280;63554;48.940;12.050;2024-02-28T02:44:15;97332.78;;;4.25;85.66
75008;BME280;63554;48.940;12.050;2024-02-28T02:48:21;97329.72;;;4.28;85.61
75008;BME280;63554;48.940;12.050;2024-02-28T02:52:26;97336.56;;;4.30;85.59
75008;BME280;63554;48.940;12.050;2024-02-28T02:56:35;97334.16;;;4.35;85.75
75008;BME280;63554;48.940;12.050;2024-02-28T03:00:40;97346.13;;;4.39;85.93
75008;BME280;63554;48.940;12.050;2024-02-28T03:04:46;97352.97;;;4.42;86.14
75008;BME280;63554;48.940;12.050;2024-02-28T03:08:51;97339.41;;;4.43;86.09
75008;BME280;63554;48.940;12.050;2024-02-28T03:12:59;97344.38;;;4.47;85.97
75008;BME280;63554;48.940;12.050;2024-02-28T03:17:05;97338.63;;;4.50;86.19
75008;BME280;63554;48.940;12.050;2024-02-28T03:21:10;97346.50;;;4.51;86.12
75008;BME280;63554;48.940;12.050;2024-02-28T03:25:16;97347.13;;;4.53;86.23
75008;BME280;63554;48.940;12.050;2024-02-28T03:29:24;97347.13;;;4.53;85.82
75008;BME280;63554;48.940;12.050;2024-02-28T03:33:30;97351.50;;;4.54;86.15
75008;BME280;63554;48.940;12.050;2024-02-28T03:37:37;97351.28;;;4.56;86.08
75008;BME280;63554;48.940;12.050;2024-02-28T03:41:43;97352.97;;;4.57;85.85
75008;BME280;63554;48.940;12.050;2024-02-28T03:45:51;97354.59;;;4.58;86.02
75008;BME280;63554;48.940;12.050;2024-02-28T03:49:57;97358.13;;;4.58;85.97
75008;BME280;63554;48.940;12.050;2024-02-28T03:54:04;97359.78;;;4.59;86.12
75008;BME280;63554;48.940;12.050;2024-02-28T03:58:10;97359.78;;;4.59;86.21
75008;BME280;63554;48.940;12.050;2024-02-28T04:02:18;97362.28;;;4.61;86.00
75008;BME280;63554;48.940;12.050;2024-02-28T04:06:24;97365.59;;;4.63;85.88
75008;BME280;63554;48.940;12.050;2024-02-28T04:10:29;97371.41;;;4.66;85.89
75008;BME280;63554;48.940;12.050;2024-02-28T04:14:37;97374.94;;;4.67;85.58
75008;BME280;63554;48.940;12.050;2024-02-28T04:18:45;97371.22;;;4.68;85.78
75008;BME280;63554;48.940;12.050;2024-02-28T04:22:50;97372.88;;;4.69;85.55
75008;BME280;63554;48.940;12.050;2024-02-28T04:26:56;97371.88;;;4.70;85.62
75008;BME280;63554;48.940;12.050;2024-02-28T04:31:02;97373.72;;;4.69;85.61
75008;BME280;63554;48.940;12.050;2024-02-28T04:35:12;97365.75;;;4.76;85.81
75008;BME280;63554;48.940;12.050;2024-02-28T04:39:21;97376.94;;;4.79;85.57
75008;BME280;63554;48.940;12.050;2024-02-28T04:43:26;97377.25;;;4.91;85.99
75008;BME280;63554;48.940;12.050;2024-02-28T04:47:32;97385.31;;;4.91;85.48
75008;BME280;63554;48.940;12.050;2024-02-28T04:51:48;97397.06;;;4.90;85.74
75008;BME280;63554;48.940;12.050;2024-02-28T04:55:54;97395.59;;;4.87;85.60
75008;BME280;63554;48.940;12.050;2024-02-28T04:59:59;97393.09;;;4.86;85.40
75008;BME280;63554;48.940;12.050;2024-02-28T05:04:06;97400.50;;;4.84;85.37
75008;BME280;63554;48.940;12.050;2024-02-28T05:08:14;97412.06;;;4.84;85.20
75008;BME280;63554;48.940;12.050;2024-02-28T05:12:20;97421.09;;;4.83;85.09
75008;BME280;63554;48.940;12.050;2024-02-28T05:16:25;97422.16;;;4.82;84.99
75008;BME280;63554;48.940;12.050;2024-02-28T05:20:31;97435.56;;;4.82;84.76
75008;BME280;63554;48.940;12.050;2024-02-28T05:24:40;97431.84;;;4.83;84.96
75008;BME280;63554;48.940;12.050;2024-02-28T05:28:46;97444.03;;;4.86;84.98
75008;BME280;63554;48.940;12.050;2024-02-28T05:32:51;97449.22;;;4.87;84.67
75008;BME280;63554;48.940;12.050;2024-02-28T05:36:57;97455.41;;;4.88;84.50
75008;BME280;63554;48.940;12.050;2024-02-28T05:41:06;97463.28;;;4.89;84.29
75008;BME280;63554;48.940;12.050;2024-02-28T05:45:11;97469.47;;;4.90;84.20
75008;BME280;63554;48.940;12.050;2024-02-28T05:49:17;97471.97;;;4.91;84.36
75008;BME280;63554;48.940;12.050;2024-02-28T05:53:23;97485.19;;;4.93;84.41
75008;BME280;63554;48.940;12.050;2024-02-28T05:57:32;97492.22;;;4.94;84.42
75008;BME280;63554;48.940;12.050;2024-02-28T06:01:37;97501.09;;;4.94;84.14
75008;BME280;63554;48.940;12.050;2024-02-28T06:05:43;97508.13;;;4.95;84.23
75008;BME280;63554;48.940;12.050;2024-02-28T06:09:49;97508.94;;;4.96;84.23
75008;BME280;63554;48.940;12.050;2024-02-28T06:13:57;97516.19;;;4.95;83.96
75008;BME280;63554;48.940;12.050;2024-02-28T06:18:04;97527.28;;;4.92;84.24
75008;BME280;63554;48.940;12.050;2024-02-28T06:22:10;97534.69;;;4.90;83.73
75008;BME280;63554;48.940;12.050;2024-02-28T06:26:16;97547.25;;;4.90;84.09
75008;BME280;63554;48.940;12.050;2024-02-28T06:30:24;97557.13;;;4.89;83.84
75008;BME280;63554;48.940;12.050;2024-02-28T06:34:29;97558.97;;;4.89;83.71
75008;BME280;63554;48.940;12.050;2024-02-28T06:38:35;97567.75;;;4.83;83.92
75008;BME280;63554;48.940;12.050;2024-02-28T06:42:40;97567.94;;;4.81;83.48
75008;BME280;63554;48.940;12.050;2024-02-28T06:46:48;97575.81;;;4.83;83.95
75008;BME280;63554;48.940;12.050;2024-02-28T06:50:54;97592.38;;;4.86;83.93
75008;BME280;63554;48.940;12.050;2024-02-28T06:55:00;97589.50;;;4.88;83.76
75008;BME280;63554;48.940;12.050;2024-02-28T06:59:08;97584.13;;;4.88;83.70
75008;BME280;63554;48.940;12.050;2024-02-28T07:03:16;97592.66;;;4.91;83.94
75008;BME280;63554;48.940;12.050;2024-02-28T07:07:22;97591.44;;;4.94;83.85
75008;BME280;63554;48.940;12.050;2024-02-28T07:11:27;97598.47;;;4.95;83.56
75008;BME280;63554;48.940;12.050;2024-02-28T07:15:33;97602.16;;;4.94;83.75
75008;BME280;63554;48.940;12.050;2024-02-28T16:34:49;97778.34;;;6.48;75.16
75008;BME280;63554;48.940;12.050;2024-02-28T16:38:55;97786.50;;;6.54;76.27
75008;BME280;63554;48.940;12.050;2024-02-28T16:43:00;97785.88;;;6.52;76.73
75008;BME280;63554;48.940;12.050;2024-02-28T16:47:06;97778.88;;;6.37;76.03
75008;BME280;63554;48.940;12.050;2024-02-28T16:51:14;97795.09;;;6.28;75.56
75008;BME280;63554;48.940;12.050;2024-02-28T16:55:21;97791.47;;;6.21;75.01
75008;BME280;63554;48.940;12.050;2024-02-28T16:59:26;97795.38;;;6.19;74.46
75008;BME280;63554;48.940;12.050;2024-02-28T17:03:32;97793.72;;;6.18;74.08
75008;BME280;63554;48.940;12.050;2024-02-28T17:07:40;97801.16;;;6.16;73.88
75008;BME280;63554;48.940;12.050;2024-02-28T17:11:45;97807.72;;;6.13;73.69
75008;BME280;63554;48.940;12.050;2024-02-28T17:15:51;97812.25;;;6.13;73.69
75008;BME280;63554;48.940;12.050;2024-02-28T17:19:57;97822.16;;;6.12;73.75
75008;BME280;63554;48.940;12.050;2024-02-28T17:24:07;97829.41;;;6.12;73.67
75008;BME280;63554;48.940;12.050;2024-02-28T17:28:13;97827.91;;;6.09;73.60
75008;BME280;63554;48.940;12.050;2024-02-28T17:32:18;97837.81;;;6.09;73.51
75008;BME280;63554;48.940;12.050;2024-02-28T17:36:24;97838.66;;;6.09;73.72
75008;BME280;63554;48.940;12.050;2024-02-28T17:40:32;97837.66;;;6.10;73.53
75008;BME280;63554;48.940;12.050;2024-02-28T17:44:38;97838.50;;;6.11;73.62
75008;BME280;63554;48.940;12.050;2024-02-28T17:48:43;97844.88;;;6.10;73.60
75008;BME280;63554;48.940;12.050;2024-02-28T17:52:48;97854.97;;;6.08;73.81
75008;BME280;63554;48.940;12.050;2024-02-28T17:56:57;97860.25;;;6.01;73.74
75008;BME280;63554;48.940;12.050;2024-02-28T18:01:03;97857.75;;;6.14;74.04
75008;BME280;63554;48.940;12.050;2024-02-28T18:05:10;97851.06;;;6.40;75.61
75008;BME280;63554;48.940;12.050;2024-02-28T18:09:15;97848.09;;;6.35;75.61
75008;BME280;63554;48.940;12.050;2024-02-28T18:13:24;97856.38;;;6.18;75.15
75008;BME280;63554;48.940;12.050;2024-02-28T18:17:31;97844.50;;;6.13;74.42
75008;BME280;63554;48.940;12.050;2024-02-28T18:21:37;97843.66;;;6.12;74.24
75008;BME280;63554;48.940;12.050;2024-02-28T18:25:42;97854.06;;;6.15;74.16
75008;BME280;63554;48.940;12.050;2024-02-28T18:29:50;97847.38;;;6.11;73.79
75008;BME280;63554;48.940;12.050;2024-02-28T18:33:56;97855.44;;;6.11;74.01
75008;BME280;63554;48.940;12.050;2024-02-28T18:38:01;97855.63;;;6.10;73.67
75008;BME280;63554;48.940;12.050;2024-02-28T18:42:06;97844.03;;;6.09;73.70
75008;BME280;63554;48.940;12.050;2024-02-28T18:46:15;97848.56;;;6.09;73.77
75008;BME280;63554;48.940;12.050;2024-02-28T18:50:21;97855.16;;;6.06;73.55
75008;BME280;63554;48.940;12.050;2024-02-28T18:54:27;97845.25;;;6.07;73.62
75008;BME280;63554;48.940;12.050;2024-02-28T18:58:32;97853.78;;;6.10;73.58
75008;BME280;63554;48.940;12.050;2024-02-28T19:02:41;97844.31;;;6.00;73.45
75008;BME280;63554;48.940;12.050;2024-02-28T19:06:46;97848.38;;;5.96;72.84
75008;BME280;63554;48.940;12.050;2024-02-28T19:10:53;97845.53;;;5.97;72.52
75008;BME280;63554;48.940;12.050;2024-02-28T19:17:35;97842.47;;;6.00;73.05
75008;BME280;63554;48.940;12.050;2024-02-28T19:21:40;97846.00;;;6.01;73.29
75008;BME280;63554;48.940;12.050;2024-02-28T19:25:46;97847.47;;;6.03;73.62
75008;BME280;63554;48.940;12.050;2024-02-28T19:29:51;97851.81;;;6.04;73.72
75008;BME280;63554;48.940;12.050;2024-02-28T19:33:59;97841.06;;;6.04;73.97
75008;BME280;63554;48.940;12.050;2024-02-28T19:38:05;97844.78;;;6.03;73.89
75008;BME280;63554;48.940;12.050;2024-02-28T19:42:10;97832.09;;;5.97;74.05
75008;BME280;63554;48.940;12.050;2024-02-28T19:46:15;97838.09;;;5.99;73.84
75008;BME280;63554;48.940;12.050;2024-02-28T19:50:23;97845.16;;;6.00;73.70
75008;BME280;63554;48.940;12.050;2024-02-28T19:54:28;97846.81;;;6.01;73.22
75008;BME280;63554;48.940;12.050;2024-02-28T19:58:35;97836.47;;;5.98;73.67
75008;BME280;63554;48.940;12.050;2024-02-28T20:02:40;97852.84;;;6.03;73.58
75008;BME280;63554;48.940;12.050;2024-02-28T20:06:47;97850.53;;;6.00;73.94
75008;BME280;63554;48.940;12.050;2024-02-28T20:10:52;97857.56;;;6.01;73.74
75008;BME280;63554;48.940;12.050;2024-02-28T20:14:57;97849.06;;;5.98;73.74
75008;BME280;63554;48.940;12.050;2024-02-28T20:19:02;97846.91;;;5.93;73.70
75008;BME280;63554;48.940;12.050;2024-02-28T20:23:10;97851.63;;;5.91;73.42
75008;BME280;63554;48.940;12.050;2024-02-28T20:27:17;97849.78;;;5.92;73.35
75008;BME280;63554;48.940;12.050;2024-02-28T20:31:22;97848.09;;;5.91;73.38
75008;BME280;63554;48.940;12.050;2024-02-28T20:35:26;97852.09;;;5.95;73.65
75008;BME280;63554;48.940;12.050;2024-02-28T20:39:34;97852.94;;;5.95;73.86
75008;BME280;63554;48.940;12.050;2024-02-28T20:43:39;97844.88;;;5.95;73.71
75008;BME280;63554;48.940;12.050;2024-02-28T20:47:44;97845.03;;;5.94;73.93
75008;BME280;63554;48.940;12.050;2024-02-28T20:51:49;97837.53;;;5.89;73.74
75008;BME280;63554;48.940;12.050;2024-02-28T20:55:57;97846.25;;;5.91;73.79
75008;BME280;63554;48.940;12.050;2024-02-28T21:00:02;97841.06;;;5.90;74.09
75008;BME280;63554;48.940;12.050;2024-02-28T21:04:07;97847.44;;;5.89;74.06
75008;BME280;63554;48.940;12.050;2024-02-28T21:08:15;97847.44;;;5.89;74.21
75008;BME280;63554;48.940;12.050;2024-02-28T21:12:23;97833.56;;;5.85;74.31
75008;BME280;63554;48.940;12.050;2024-02-28T21:16:31;97835.75;;;5.82;74.33
75008;BME280;63554;48.940;12.050;2024-02-28T21:20:38;97835.75;;;5.82;74.60
75008;BME280;63554;48.940;12.050;2024-02-28T21:24:43;97828.25;;;5.77;74.88
75008;BME280;63554;48.940;12.050;2024-02-28T21:28:50;97825.94;;;5.74;75.00
75008;BME280;63554;48.940;12.050;2024-02-28T21:32:56;97830.47;;;5.74;75.12
75008;BME280;63554;48.940;12.050;2024-02-28T21:37:01;97828.81;;;5.73;75.58
75008;BME280;63554;48.940;12.050;2024-02-28T21:41:05;97821.13;;;5.69;75.58
75008;BME280;63554;48.940;12.050;2024-02-28T21:45:13;97827.69;;;5.67;75.95
75008;BME280;63554;48.940;12.050;2024-02-28T21:49:19;97819.78;;;5.65;75.80
75008;BME280;63554;48.940;12.050;2024-02-28T21:53:24;97818.59;;;5.68;75.86
75008;BME280;63554;48.940;12.050;2024-02-28T21:57:29;97816.94;;;5.67;75.90
75008;BME280;63554;48.940;12.050;2024-02-28T22:01:36;97822.69;;;5.64;76.03
75008;BME280;63554;48.940;12.050;2024-02-28T22:05:41;97817.31;;;5.64;75.92
75008;BME280;63554;48.940;12.050;2024-02-28T22:09:46;97814.63;;;5.64;75.94
75008;BME280;63554;48.940;12.050;2024-02-28T22:13:51;97815.47;;;5.64;75.77
75008;BME280;63554;48.940;12.050;2024-02-28T22:17:59;97817.94;;;5.66;75.65
75008;BME280;63554;48.940;12.050;2024-02-28T22:22:04;97812.38;;;5.67;75.81
75008;BME280;63554;48.940;12.050;2024-02-28T22:26:09;97809.06;;;5.65;76.01
75008;BME280;63554;48.940;12.050;2024-02-28T22:30:14;97809.25;;;5.64;75.67
75008;BME280;63554;48.940;12.050;2024-02-28T22:34:22;97798.69;;;5.62;76.11
75008;BME280;63554;48.940;12.050;2024-02-28T22:38:27;97806.09;;;5.60;76.02
75008;BME280;63554;48.940;12.050;2024-02-28T22:42:32;97796.53;;;5.58;75.90
75008;BME280;63554;48.940;12.050;2024-02-28T22:46:37;97798.59;;;5.56;75.80
75008;BME280;63554;48.940;12.050;2024-02-28T22:50:44;97798.78;;;5.54;76.05
75008;BME280;63554;48.940;12.050;2024-02-28T22:54:49;97794.63;;;5.52;76.11
75008;BME280;63554;48.940;12.050;2024-02-28T22:58:54;97795.63;;;5.51;76.29
75008;BME280;63554;48.940;12.050;2024-02-28T23:02:59;97793.50;;;5.46;76.05
75008;BME280;63554;48.940;12.050;2024-02-28T23:07:08;97788.13;;;5.46;76.20
75008;BME280;63554;48.940;12.050;2024-02-28T23:11:13;97779.59;;;5.43;76.44
75008;BME280;63554;48.940;12.050;2024-02-28T23:15:18;97787.47;;;5.44;76.26
75008;BME280;63554;48.940;12.050;2024-02-28T23:19:23;97781.28;;;5.44;76.35
75008;BME280;63554;48.940;12.050;2024-02-28T23:23:32;97781.44;;;5.42;76.17
75008;BME280;63554;48.940;12.050;2024-02-28T23:27:37;97779.59;;;5.43;76.50
75008;BME280;63554;48.940;12.050;2024-02-28T23:31:42;97790.16;;;5.44;76.20
75008;BME280;63554;48.940;12.050;2024-02-28T23:35:47;97778.59;;;5.44;76.44
75008;BME280;63554;48.940;12.050;2024-02-28T23:39:55;97773.84;;;5.46;76.59
75008;BME280;63554;48.940;12.050;2024-02-28T23:44:00;97776.19;;;5.49;76.33
75008;BME280;63554;48.940;12.050;2024-02-28T23:48:05;97773.03;;;5.45;76.33
75008;BME280;63554;48.940;12.050;2024-02-28T23:52:10;97776.91;;;5.43;76.06
75008;BME280;63554;48.940;12.050;2024-02-28T23:56:18;97775.34;;;5.34;76.31
